createdAt,value
2022-10-20T00:00:25.395Z,27.50
2022-10-20T00:02:52.646Z,22.95
2022-10-20T00:05:19.842Z,23.67
2022-10-20T00:07:47.029Z,24.30
2022-10-20T00:10:14.173Z,25.42
2022-10-20T00:12:41.307Z,25.77
2022-10-20T00:15:08.564Z,30.67
2022-10-20T00:17:35.771Z,27.35
2022-10-20T00:20:03.258Z,22.73
2022-10-20T00:22:32.091Z,23.17
2022-10-20T00:25:01.767Z,21.17
2022-10-20T00:27:31.489Z,23.27
2022-10-20T00:29:58.623Z,21.90
2022-10-20T00:32:25.795Z,24.42
2022-10-20T00:34:52.930Z,30.65
2022-10-20T00:37:20.089Z,27.77
2022-10-20T00:39:47.216Z,33.95
2022-10-20T00:42:20.951Z,33.45
2022-10-20T00:44:53.185Z,21.40
2022-10-20T00:47:22.189Z,26.63
2022-10-20T00:49:50.587Z,23.70
2022-10-20T00:52:19.257Z,28.67
2022-10-20T00:54:49.114Z,26.48
2022-10-20T00:57:16.668Z,24.20
2022-10-20T00:59:47.895Z,33.30
2022-10-20T01:02:15.101Z,32.85
2022-10-20T01:04:42.447Z,30.60
2022-10-20T01:07:09.762Z,32.42
2022-10-20T01:09:38.998Z,24.23
2022-10-20T01:12:10.769Z,23.63
2022-10-20T01:14:49.946Z,33.97
2022-10-20T01:17:35.342Z,25.95
2022-10-20T01:20:02.650Z,27.67
2022-10-20T01:22:39.556Z,25.52
2022-10-20T01:25:06.666Z,22.30
2022-10-20T01:27:36.816Z,30.35
2022-10-20T01:30:11.286Z,26.83
2022-10-20T01:32:41.146Z,30.80
2022-10-20T01:35:11.217Z,36.10
2022-10-20T01:37:50.697Z,26.13
2022-10-20T01:40:24.860Z,30.98
2022-10-20T01:42:53.317Z,27.90
2022-10-20T01:45:21.899Z,31.05
2022-10-20T01:47:51.166Z,25.63
2022-10-20T01:50:19.566Z,29.95
2022-10-20T01:52:51.495Z,23.88
2022-10-20T01:55:19.121Z,27.13
2022-10-20T01:57:53.096Z,31.23
2022-10-20T02:00:20.369Z,24.70
2022-10-20T02:02:59.824Z,26.90
2022-10-20T02:05:45.382Z,30.08
2022-10-20T02:08:17.163Z,27.13
2022-10-20T02:10:55.710Z,30.83
2022-10-20T02:13:23.069Z,35.53
2022-10-20T02:15:57.490Z,23.17
2022-10-20T02:18:32.547Z,33.70
2022-10-20T02:21:01.499Z,31.02
2022-10-20T02:23:33.841Z,24.38
2022-10-20T02:26:09.330Z,25.85
2022-10-20T02:28:38.272Z,25.17
2022-10-20T02:31:05.841Z,37.78
2022-10-20T02:33:33.274Z,22.30
2022-10-20T02:36:00.886Z,32.13
2022-10-20T02:38:30.351Z,26.50
2022-10-20T02:40:57.502Z,27.70
2022-10-20T02:43:24.769Z,29.63
2022-10-20T02:45:51.904Z,28.33
2022-10-20T02:48:21.444Z,25.67
2022-10-20T02:50:48.557Z,34.03
2022-10-20T02:53:18.060Z,25.88
2022-10-20T02:55:45.223Z,31.83
2022-10-20T02:58:12.377Z,24.60
2022-10-20T03:00:39.636Z,28.13
2022-10-20T03:03:06.778Z,23.48
2022-10-20T03:05:33.939Z,23.98
2022-10-20T03:08:01.092Z,28.02
2022-10-20T03:10:28.245Z,33.47
2022-10-20T03:12:55.385Z,24.52
2022-10-20T03:15:22.570Z,28.85
2022-10-20T03:17:49.705Z,25.33
2022-10-20T03:20:16.888Z,31.38
2022-10-20T03:22:46.493Z,27.38
2022-10-20T03:25:13.634Z,27.35
2022-10-20T03:27:40.761Z,29.67
2022-10-20T03:30:08.104Z,27.17
2022-10-20T03:32:36.001Z,25.02
2022-10-20T03:35:03.490Z,23.00
2022-10-20T03:37:30.618Z,28.50
2022-10-20T03:39:57.773Z,27.80
2022-10-20T03:42:24.928Z,25.85
2022-10-20T03:44:52.099Z,22.20
2022-10-20T03:47:19.331Z,39.67
2022-10-20T03:49:46.433Z,25.50
2022-10-20T03:52:13.633Z,21.33
2022-10-20T03:54:43.199Z,28.15
2022-10-20T03:57:10.423Z,22.58
2022-10-20T03:59:37.571Z,17.63
2022-10-20T04:02:04.971Z,30.70
2022-10-20T04:04:32.281Z,29.42
2022-10-20T04:06:59.443Z,27.40
2022-10-20T04:09:26.624Z,27.55
2022-10-20T04:11:53.778Z,32.63
2022-10-20T04:14:20.958Z,36.30
2022-10-20T04:16:48.232Z,22.00
2022-10-20T04:19:15.407Z,24.33
2022-10-20T04:21:42.532Z,25.70
2022-10-20T04:24:09.831Z,26.05
2022-10-20T04:26:37.069Z,29.60
2022-10-20T04:29:04.234Z,27.48
2022-10-20T04:31:31.402Z,27.75
2022-10-20T04:33:58.641Z,28.23
2022-10-20T04:36:25.870Z,27.65
2022-10-20T04:38:52.995Z,27.63
2022-10-20T04:41:20.114Z,32.25
2022-10-20T04:43:51.959Z,33.83
2022-10-20T04:46:19.518Z,25.00
2022-10-20T04:48:46.666Z,29.35
2022-10-20T04:51:14.782Z,27.27
2022-10-20T04:53:41.920Z,28.63
2022-10-20T04:56:09.936Z,39.00
2022-10-20T04:58:37.069Z,28.33
2022-10-20T05:01:11.167Z,38.28
2022-10-20T05:03:38.446Z,33.40
2022-10-20T05:06:13.183Z,29.98
2022-10-20T05:08:41.096Z,30.25
2022-10-20T05:11:08.954Z,32.00
2022-10-20T05:13:36.351Z,27.67
2022-10-20T05:16:04.515Z,29.70
2022-10-20T05:18:31.771Z,36.15
2022-10-20T05:21:09.013Z,29.42
2022-10-20T05:23:36.754Z,33.08
2022-10-20T05:26:04.962Z,33.53
2022-10-20T05:28:32.620Z,34.88
2022-10-20T05:31:07.493Z,34.60
2022-10-20T05:33:34.881Z,42.30
2022-10-20T05:36:07.384Z,36.17
2022-10-20T05:38:36.746Z,33.45
2022-10-20T05:41:10.897Z,33.83
2022-10-20T05:43:38.549Z,27.92
2022-10-20T05:46:06.106Z,34.33
2022-10-20T05:48:33.608Z,43.28
2022-10-20T05:51:13.934Z,34.10
2022-10-20T05:53:42.753Z,38.13
2022-10-20T05:56:11.296Z,40.30
2022-10-20T05:58:38.566Z,37.35
2022-10-20T06:01:10.094Z,41.08
2022-10-20T06:03:37.724Z,40.15
2022-10-20T06:06:05.336Z,29.80
2022-10-20T06:08:32.991Z,40.55
2022-10-20T06:11:04.380Z,32.53
2022-10-20T06:13:32.617Z,45.63
2022-10-20T06:16:04.501Z,30.35
2022-10-20T06:18:32.552Z,28.65
2022-10-20T06:21:01.007Z,42.15
2022-10-20T06:23:28.284Z,38.63
2022-10-20T06:25:56.032Z,30.77
2022-10-20T06:28:23.233Z,27.83
2022-10-20T06:30:50.455Z,28.73
2022-10-20T06:33:17.608Z,22.33
2022-10-20T06:35:44.743Z,34.33
2022-10-20T06:38:11.866Z,27.25
2022-10-20T06:40:39.388Z,30.17
2022-10-20T06:43:06.529Z,21.45
2022-10-20T06:45:33.893Z,36.42
2022-10-20T06:48:01.092Z,26.65
2022-10-20T06:50:28.220Z,27.52
2022-10-20T06:52:55.391Z,19.75
2022-10-20T06:55:22.551Z,29.27
2022-10-20T06:57:49.827Z,23.92
2022-10-20T07:00:17.129Z,28.60
2022-10-20T07:02:44.385Z,25.52
2022-10-20T07:05:11.518Z,28.67
2022-10-20T07:07:38.658Z,26.95
2022-10-20T07:10:05.941Z,23.52
2022-10-20T07:12:33.091Z,32.47
2022-10-20T07:15:00.319Z,27.52
2022-10-20T07:17:27.581Z,30.95
2022-10-20T07:19:54.694Z,31.95
2022-10-20T07:22:22.138Z,30.08
2022-10-20T07:24:49.313Z,30.02
2022-10-20T07:27:16.441Z,19.45
2022-10-20T07:29:43.605Z,21.83
2022-10-20T07:32:10.733Z,27.73
2022-10-20T07:34:37.937Z,18.80
2022-10-20T07:37:05.077Z,19.50
2022-10-20T07:39:32.223Z,17.52
2022-10-20T07:41:59.343Z,26.38
2022-10-20T07:44:26.640Z,25.67
2022-10-20T07:46:53.821Z,21.55
2022-10-20T07:52:08.248Z,24.85
2022-10-20T07:54:35.542Z,20.90
2022-10-20T07:57:02.720Z,24.15
2022-10-20T07:59:29.946Z,23.33
2022-10-20T08:01:59.594Z,22.50
2022-10-20T08:04:27.356Z,26.20
2022-10-20T08:06:54.638Z,40.42
2022-10-20T08:09:21.810Z,35.58
2022-10-20T08:11:52.739Z,23.52
2022-10-20T08:14:22.564Z,21.90
2022-10-20T08:16:51.738Z,16.00
2022-10-20T08:19:30.606Z,19.23
2022-10-20T08:21:57.827Z,13.27
2022-10-20T08:24:24.980Z,18.05
2022-10-20T08:26:52.102Z,24.83
2022-10-20T08:29:19.236Z,23.70
2022-10-20T08:31:46.379Z,19.48
2022-10-20T08:34:13.528Z,27.65
2022-10-20T08:36:40.755Z,24.92
2022-10-20T08:39:07.888Z,15.15
2022-10-20T08:42:06.471Z,29.40
2022-10-20T08:44:33.769Z,23.83
2022-10-20T08:47:02.100Z,23.48
2022-10-20T08:49:31.223Z,23.65
2022-10-20T08:51:58.979Z,19.75
2022-10-20T08:54:26.189Z,15.20
2022-10-20T08:56:53.496Z,21.83
2022-10-20T08:59:33.723Z,14.57
2022-10-20T09:02:01.216Z,19.20
2022-10-20T09:04:33.374Z,21.13
2022-10-20T09:07:05.413Z,18.85
2022-10-20T09:12:07.907Z,15.35
2022-10-20T09:14:37.227Z,6.28
2022-10-20T09:17:07.908Z,7.00
2022-10-20T09:19:36.604Z,9.25
2022-10-20T09:22:05.736Z,14.02
2022-10-20T09:24:33.695Z,11.23
2022-10-20T09:27:18.436Z,12.73
2022-10-20T09:29:45.698Z,13.32
2022-10-20T09:32:48.577Z,24.50
2022-10-20T09:35:15.913Z,16.23
2022-10-20T09:37:44.383Z,17.70
2022-10-20T09:40:18.745Z,18.85
2022-10-20T09:42:49.928Z,18.52
2022-10-20T09:45:22.038Z,18.55
2022-10-20T09:47:54.625Z,15.02
2022-10-20T09:50:27.966Z,20.00
2022-10-20T09:52:55.540Z,14.77
2022-10-20T09:55:51.692Z,5.40
2022-10-20T09:58:21.475Z,8.10
2022-10-20T10:00:56.194Z,10.88
2022-10-20T10:03:26.404Z,8.90
2022-10-20T10:05:53.571Z,14.35
2022-10-20T10:08:22.119Z,12.63
2022-10-20T10:10:58.778Z,6.65
2022-10-20T10:13:27.029Z,10.18
2022-10-20T10:16:01.824Z,8.77
2022-10-20T10:18:29.314Z,9.27
2022-10-20T10:21:01.085Z,16.60
2022-10-20T10:23:29.759Z,8.18
2022-10-20T10:26:00.586Z,18.23
2022-10-20T10:28:37.602Z,7.00
2022-10-20T10:31:09.390Z,4.50
2022-10-20T10:33:36.624Z,12.63
2022-10-20T10:36:06.062Z,9.88
2022-10-20T10:38:33.198Z,10.10
2022-10-20T10:41:00.299Z,8.75
2022-10-20T10:43:50.602Z,10.75
2022-10-20T10:46:20.288Z,7.35
2022-10-20T10:48:53.497Z,7.43
2022-10-20T10:51:39.440Z,15.95
2022-10-20T10:54:29.331Z,10.23
2022-10-20T10:57:19.716Z,13.18
2022-10-20T10:59:48.917Z,5.93
2022-10-20T11:02:34.940Z,10.05
2022-10-20T11:05:20.371Z,11.27
2022-10-20T11:07:52.464Z,7.63
2022-10-20T11:10:30.425Z,15.15
2022-10-20T11:13:12.713Z,5.72
2022-10-20T11:15:58.507Z,12.65
2022-10-20T11:18:31.356Z,6.82
2022-10-20T11:21:07.308Z,8.95
2022-10-20T11:23:46.606Z,5.07
2022-10-20T11:26:32.704Z,7.53
2022-10-20T11:29:01.480Z,8.98
2022-10-20T11:31:28.572Z,8.38
2022-10-20T11:34:00.665Z,8.20
2022-10-20T11:36:32.459Z,9.00
2022-10-20T11:38:59.701Z,10.02
2022-10-20T11:41:29.600Z,6.55
2022-10-20T11:44:04.233Z,9.82
2022-10-20T11:46:35.509Z,7.13
2022-10-20T11:49:04.405Z,5.35
2022-10-20T11:51:31.916Z,10.75
2022-10-20T11:54:11.461Z,8.73
2022-10-20T11:56:57.681Z,9.52
2022-10-20T11:59:25.039Z,7.25
2022-10-20T12:01:55.501Z,7.30
2022-10-20T12:04:31.603Z,7.03
2022-10-20T12:07:16.814Z,8.57
2022-10-20T12:09:55.748Z,6.68
2022-10-20T12:12:32.656Z,9.27
2022-10-20T12:15:04.724Z,10.30
2022-10-20T12:17:31.909Z,8.82
2022-10-20T12:20:19.025Z,10.73
2022-10-20T12:22:49.922Z,11.85
2022-10-20T12:25:20.560Z,12.32
2022-10-20T12:27:47.837Z,106.15
2022-10-20T12:30:34.024Z,12.82
2022-10-20T12:33:18.238Z,7.55
2022-10-20T12:35:59.908Z,8.10
2022-10-20T12:38:27.631Z,10.00
2022-10-20T12:40:59.643Z,7.57
2022-10-20T12:43:31.220Z,7.05
2022-10-20T12:45:59.745Z,3.45
2022-10-20T12:48:27.142Z,10.40
2022-10-20T12:50:54.537Z,9.10
2022-10-20T12:53:26.669Z,12.68
2022-10-20T12:56:10.815Z,6.95
2022-10-20T12:58:39.326Z,9.77
2022-10-20T13:01:08.280Z,9.23
2022-10-20T13:03:37.241Z,7.50
2022-10-20T13:06:30.831Z,9.10
2022-10-20T13:09:04.540Z,8.77
2022-10-20T13:11:37.732Z,11.38
2022-10-20T13:14:28.088Z,5.38
2022-10-20T13:17:11.289Z,12.95
2022-10-20T13:20:01.405Z,3.42
2022-10-20T13:22:42.891Z,5.90
2022-10-20T13:25:39.999Z,6.07
2022-10-20T13:28:18.388Z,9.57
2022-10-20T13:31:02.611Z,6.28
2022-10-20T13:33:44.486Z,5.68
2022-10-20T13:36:23.743Z,3.70
2022-10-20T13:38:57.121Z,4.57
2022-10-20T13:41:37.113Z,8.90
2022-10-20T13:44:25.838Z,5.40
2022-10-20T13:46:58.628Z,6.25
2022-10-20T13:49:46.584Z,3.60
2022-10-20T13:52:17.162Z,2.85
2022-10-20T13:54:48.753Z,1.13
2022-10-20T13:57:33.073Z,2.90
2022-10-20T14:00:04.353Z,4.53
2022-10-20T14:02:33.520Z,6.35
2022-10-20T14:05:03.851Z,5.22
2022-10-20T14:07:44.629Z,2.50
2022-10-20T14:10:30.333Z,5.18
2022-10-20T14:13:00.026Z,7.80
2022-10-20T14:15:32.615Z,4.55
2022-10-20T14:20:27.408Z,3.28
2022-10-20T14:22:55.060Z,4.72
2022-10-20T14:25:25.084Z,3.30
2022-10-20T14:27:53.470Z,3.03
2022-10-20T14:30:21.058Z,4.78
2022-10-20T14:32:49.821Z,5.88
2022-10-20T14:35:18.729Z,4.88
2022-10-20T14:37:51.489Z,3.50
2022-10-20T14:42:50.889Z,9.73
2022-10-20T14:45:19.468Z,1.23
2022-10-20T14:47:47.615Z,3.45
2022-10-20T14:50:25.000Z,2.78
2022-10-20T14:52:54.161Z,4.53
2022-10-20T14:55:27.727Z,3.35
2022-10-20T14:57:55.938Z,4.97
2022-10-20T15:00:30.282Z,5.50
2022-10-20T15:02:58.741Z,2.55
2022-10-20T15:05:32.115Z,7.00
2022-10-20T15:08:16.977Z,2.55
2022-10-20T15:10:44.332Z,4.38
2022-10-20T15:13:23.584Z,4.97
2022-10-20T15:15:54.291Z,11.20
2022-10-20T15:18:23.284Z,2.55
2022-10-20T15:20:51.272Z,5.90
2022-10-20T15:23:22.394Z,6.53
2022-10-20T15:25:49.576Z,5.05
2022-10-20T15:28:16.655Z,4.00
2022-10-20T15:30:43.792Z,4.50
2022-10-20T15:33:13.280Z,6.95
2022-10-20T15:35:44.985Z,11.75
2022-10-20T15:38:12.161Z,5.22
2022-10-20T15:40:39.353Z,2.65
2022-10-20T15:43:06.504Z,4.28
2022-10-20T15:45:39.631Z,7.63
2022-10-20T15:48:06.871Z,7.60
2022-10-20T15:50:34.043Z,3.72
2022-10-20T15:53:01.171Z,3.75
2022-10-20T15:55:32.333Z,10.15
2022-10-20T15:58:02.222Z,4.25
2022-10-20T16:00:29.892Z,4.50
2022-10-20T16:02:57.316Z,7.85
2022-10-20T16:05:27.771Z,4.68
2022-10-20T16:07:55.825Z,6.30
2022-10-20T16:10:24.161Z,3.90
2022-10-20T16:12:51.760Z,7.82
2022-10-20T16:15:19.244Z,5.82
2022-10-20T16:17:47.045Z,4.18
2022-10-20T16:20:15.221Z,4.43
2022-10-20T16:22:44.537Z,7.85
2022-10-20T16:25:12.112Z,4.50
2022-10-20T16:27:39.580Z,6.43
2022-10-20T16:30:07.683Z,8.80
2022-10-20T16:32:35.595Z,4.30
2022-10-20T16:35:03.608Z,13.02
2022-10-20T16:37:31.827Z,11.85
2022-10-20T16:39:59.504Z,9.35
2022-10-20T16:42:28.245Z,23.73
2022-10-20T16:44:55.425Z,10.43
2022-10-20T16:47:22.708Z,12.93
2022-10-20T16:49:49.946Z,7.50
2022-10-20T16:52:17.143Z,10.68
2022-10-20T16:54:46.746Z,11.02
2022-10-20T16:57:13.998Z,4.93
2022-10-20T16:59:42.758Z,4.72
2022-10-20T17:02:10.744Z,4.78
2022-10-20T17:04:37.956Z,5.93
2022-10-20T17:07:05.719Z,16.17
2022-10-20T17:09:32.868Z,9.60
2022-10-20T17:12:00.036Z,10.32
2022-10-20T17:14:27.445Z,14.45
2022-10-20T17:16:54.706Z,14.45
2022-10-20T17:19:24.259Z,11.05
2022-10-20T17:21:55.929Z,7.47
2022-10-20T17:24:24.461Z,17.10
2022-10-20T17:26:51.749Z,14.68
2022-10-20T17:29:23.647Z,11.70
2022-10-20T17:31:53.109Z,8.52
2022-10-20T17:34:20.435Z,14.98
2022-10-20T17:36:47.636Z,23.70
2022-10-20T17:39:16.768Z,9.23
2022-10-20T17:41:43.924Z,5.60
2022-10-20T17:44:11.719Z,3.60
2022-10-20T17:46:38.919Z,10.38
2022-10-20T17:49:06.482Z,13.38
2022-10-20T17:51:34.985Z,9.27
2022-10-20T17:54:02.743Z,7.70
2022-10-20T17:56:35.323Z,9.23
2022-10-20T17:59:06.389Z,5.90
2022-10-20T18:01:38.230Z,15.48
2022-10-20T18:04:13.234Z,6.37
2022-10-20T18:06:43.308Z,9.68
2022-10-20T18:09:11.659Z,12.50
2022-10-20T18:11:39.763Z,9.10
2022-10-20T18:14:07.258Z,10.00
2022-10-20T18:16:35.241Z,8.90
2022-10-20T18:19:02.697Z,10.23
2022-10-20T18:21:30.560Z,3.70
2022-10-20T18:23:58.838Z,13.35
2022-10-20T18:26:26.408Z,8.25
2022-10-20T18:28:53.688Z,9.65
2022-10-20T18:31:30.772Z,10.20
2022-10-20T18:34:02.676Z,9.88
2022-10-20T18:36:33.748Z,9.00
2022-10-20T18:39:01.130Z,5.10
2022-10-20T18:41:33.261Z,9.10
2022-10-20T18:44:01.832Z,8.57
2022-10-20T18:46:29.956Z,4.55
2022-10-20T18:48:57.728Z,6.22
2022-10-20T18:51:25.003Z,3.60
2022-10-20T18:53:53.668Z,6.43
2022-10-20T18:56:21.901Z,5.45
2022-10-20T18:58:50.756Z,3.30
2022-10-20T19:01:18.879Z,5.93
2022-10-20T19:03:47.363Z,4.25
2022-10-20T19:06:16.682Z,9.10
2022-10-20T19:08:44.008Z,13.40
2022-10-20T19:11:12.262Z,3.88
2022-10-20T19:13:39.869Z,10.63
2022-10-20T19:16:08.658Z,6.07
2022-10-20T19:18:36.181Z,6.05
2022-10-20T19:21:04.913Z,3.40
2022-10-20T19:23:32.762Z,3.50
2022-10-20T19:26:07.367Z,5.20
2022-10-20T19:28:35.987Z,7.53
2022-10-20T19:31:03.264Z,5.75
2022-10-20T19:33:30.470Z,5.57
2022-10-20T19:35:57.697Z,4.70
2022-10-20T19:38:24.883Z,2.97
2022-10-20T19:40:52.093Z,12.20
2022-10-20T19:43:19.397Z,5.90
2022-10-20T19:45:49.121Z,9.45
2022-10-20T19:48:17.265Z,6.03
2022-10-20T19:50:44.590Z,10.70
2022-10-20T19:53:11.997Z,3.80
2022-10-20T19:55:39.256Z,5.32
2022-10-20T19:58:06.461Z,2.63
2022-10-20T20:00:33.705Z,5.93
2022-10-20T20:03:00.873Z,2.60
2022-10-20T20:05:28.109Z,10.75
2022-10-20T20:07:55.360Z,0.40
2022-10-20T20:10:22.596Z,2.55
2022-10-20T20:12:49.803Z,3.75
2022-10-20T20:15:17.012Z,9.65
2022-10-20T20:17:44.184Z,5.35
2022-10-20T20:20:11.414Z,0.93
2022-10-20T20:22:38.593Z,4.93
2022-10-20T20:25:05.967Z,4.90
2022-10-20T20:27:33.207Z,5.00
2022-10-20T20:30:02.213Z,3.38
2022-10-20T20:32:30.178Z,7.32
2022-10-20T20:34:57.407Z,7.05
2022-10-20T20:37:24.755Z,8.63
2022-10-20T20:39:51.936Z,2.50
2022-10-20T20:42:19.107Z,5.40
2022-10-20T20:44:46.285Z,4.47
2022-10-20T20:47:17.969Z,2.92
2022-10-20T20:49:45.153Z,5.50
2022-10-20T20:52:12.361Z,6.82
2022-10-20T20:54:39.684Z,5.65
2022-10-20T20:57:06.878Z,2.90
2022-10-20T20:59:34.081Z,3.53
2022-10-20T21:02:01.316Z,5.60
2022-10-20T21:04:30.652Z,2.08
2022-10-20T21:07:02.190Z,5.15
2022-10-20T21:09:30.145Z,3.38
2022-10-20T21:11:57.525Z,4.60
2022-10-20T21:14:24.823Z,4.40
2022-10-20T21:16:52.024Z,6.85
2022-10-20T21:19:20.186Z,5.57
2022-10-20T21:21:50.879Z,5.50
2022-10-20T21:24:18.700Z,3.83
2022-10-20T21:26:46.044Z,5.43
2022-10-20T21:29:13.220Z,6.35
2022-10-20T21:31:41.043Z,3.75
2022-10-20T21:34:08.539Z,7.47
2022-10-20T21:36:36.603Z,6.35
2022-10-20T21:39:05.183Z,6.00
2022-10-20T21:41:33.039Z,7.25
2022-10-20T21:44:01.046Z,5.75
2022-10-20T21:46:32.484Z,4.18
2022-10-20T21:49:01.163Z,5.60
2022-10-20T21:51:29.929Z,7.55
2022-10-20T21:54:17.201Z,14.50
2022-10-20T21:56:44.788Z,10.82
2022-10-20T21:59:19.957Z,8.27
2022-10-20T22:01:48.173Z,4.03
2022-10-20T22:04:15.688Z,5.07
2022-10-20T22:06:43.211Z,8.45
2022-10-20T22:09:11.411Z,6.00
2022-10-20T22:11:40.132Z,3.35
2022-10-20T22:14:07.743Z,5.75
2022-10-20T22:16:36.836Z,7.57
2022-10-20T22:19:14.862Z,5.80
2022-10-20T22:21:43.426Z,5.53
2022-10-20T22:24:11.202Z,7.85
2022-10-20T22:26:38.502Z,5.22
2022-10-20T22:29:06.768Z,8.90
2022-10-20T22:31:33.973Z,8.10
2022-10-20T22:34:01.160Z,7.43
2022-10-20T22:36:29.023Z,4.85
2022-10-20T22:38:56.244Z,6.80
2022-10-20T22:41:23.616Z,11.52
2022-10-20T22:43:50.886Z,7.28
2022-10-20T22:46:18.395Z,8.60
2022-10-20T22:48:46.327Z,9.82
2022-10-20T22:51:14.155Z,8.68
2022-10-20T22:53:41.961Z,9.98
2022-10-20T22:56:13.549Z,10.57
2022-10-20T22:58:41.128Z,5.63
2022-10-20T23:01:12.586Z,10.45
2022-10-20T23:03:40.336Z,12.77
2022-10-20T23:06:14.308Z,7.60
2022-10-20T23:08:47.191Z,8.82
2022-10-20T23:11:15.365Z,6.47
2022-10-20T23:13:42.644Z,12.55
2022-10-20T23:16:10.256Z,7.80
2022-10-20T23:18:37.797Z,11.63
2022-10-20T23:21:05.381Z,6.97
2022-10-20T23:23:35.344Z,11.45
2022-10-20T23:26:04.668Z,10.25
2022-10-20T23:28:32.258Z,10.00
2022-10-20T23:31:09.545Z,9.55
2022-10-20T23:33:37.508Z,6.63
2022-10-20T23:36:04.909Z,9.45
2022-10-20T23:38:32.335Z,5.47
2022-10-20T23:40:59.647Z,7.70
2022-10-20T23:43:27.008Z,7.15
2022-10-20T23:45:54.385Z,8.00
2022-10-20T23:48:21.617Z,2.55
2022-10-20T23:50:48.864Z,9.63
2022-10-20T23:53:16.095Z,12.82
2022-10-20T23:55:43.768Z,6.07
2022-10-20T23:58:11.130Z,5.93
